Archiv-/Tagesdaten

--Timestamp---	Temp	Chill	HIndex	Humid	Dewpt	 Wind 	HiWind	WindDir	Rain 	Barom	Solar	 ET  	 UV 
--------------	----	-----	------	-----	-----	------	------	-------	-----	-----	-----	-----	----
20110823 00:00	22.8	22.8	22.8	80	19.1	0	2	45	0.0	1014.2	0	0.025	0.0
20110823 00:05	22.7	22.7	22.7	80	19.0	0	2	45	0.0	1014.1	0	0.000	0.0
20110823 00:10	22.6	22.6	22.6	80	18.9	0	2	45	0.0	1014.2	0	0.000	0.0
20110823 00:15	22.5	22.5	22.5	81	19.1	3	6	45	0.0	1014.1	0	0.000	0.0
20110823 00:20	22.5	22.5	22.5	81	19.1	2	5	45	0.0	1014.1	0	0.000	0.0
20110823 00:25	22.4	22.4	22.4	81	19.0	2	6	45	0.0	1014.1	0	0.000	0.0
20110823 00:30	22.4	22.4	22.4	81	19.0	0	2	45	0.0	1014.1	0	0.000	0.0
20110823 00:35	22.4	22.4	22.4	81	19.0	0	0	-100000	0.0	1014.1	0	0.000	0.0
20110823 00:40	22.2	22.2	22.2	81	18.8	0	0	-100000	0.0	1014.1	0	0.000	0.0
20110823 00:45	22.0	22.0	22.0	82	18.8	0	2	45	0.0	1014.1	0	0.000	0.0
20110823 00:50	21.8	21.8	21.8	83	18.8	0	2	45	0.0	1014.1	0	0.000	0.0
20110823 00:55	21.7	21.7	21.7	84	18.9	0	0	-100000	0.0	1014.1	0	0.000	0.0
20110823 01:00	21.6	21.6	21.6	84	18.8	0	3	45	0.0	1014.1	-100000	0.025	0.0
20110823 01:05	21.6	21.6	21.6	84	18.7	0	2	45	0.0	1013.9	0	0.000	0.0
20110823 01:10	21.3	21.3	21.3	84	18.5	0	3	45	0.0	1013.8	0	0.000	0.0
20110823 01:15	21.1	21.1	21.1	85	18.4	0	2	45	0.0	1013.8	0	0.000	0.0
20110823 01:20	20.9	20.9	20.9	86	18.5	0	0	-100000	0.0	1013.7	0	0.000	0.0
20110823 01:25	20.9	20.9	20.9	86	18.5	0	2	45	0.0	1013.6	0	0.000	0.0
20110823 01:30	21.0	21.0	21.0	86	18.6	0	2	45	0.0	1013.4	0	0.000	0.0
20110823 01:35	20.9	20.9	20.9	86	18.5	0	2	45	0.0	1013.4	0	0.000	0.0
20110823 01:40	20.9	20.9	20.9	86	18.5	2	5	45	0.0	1013.3	0	0.000	0.0
20110823 01:45	20.8	20.8	20.8	86	18.4	0	2	45	0.0	1013.2	0	0.000	0.0
20110823 01:50	20.8	20.8	20.8	86	18.4	0	2	45	0.0	1013.2	0	0.000	0.0
20110823 01:55	20.8	20.8	20.8	85	18.2	0	2	45	0.0	1013.1	0	0.000	0.0
20110823 02:00	20.8	20.8	20.8	85	18.2	0	2	45	0.0	1013.1	0	0.025	0.0
20110823 02:05	20.8	20.8	20.8	85	18.2	0	2	45	0.0	1012.9	0	0.000	0.0
20110823 02:10	20.8	20.8	20.8	85	18.2	0	3	45	0.0	1012.9	0	0.000	0.0
20110823 02:15	20.8	20.8	20.8	85	18.2	0	2	45	0.0	1012.9	0	0.000	0.0
20110823 02:20	20.7	20.7	20.7	85	18.1	0	2	45	0.0	1012.9	0	0.000	0.0
20110823 02:25	20.7	20.7	20.7	85	18.0	0	2	45	0.0	1013.0	0	0.000	0.0
20110823 02:30	20.6	20.6	20.6	85	18.0	0	2	45	0.0	1012.9	0	0.000	0.0
20110823 02:35	20.6	20.6	20.6	85	17.9	0	0	-100000	0.0	1012.9	0	0.000	0.0
20110823 02:40	20.5	20.5	20.5	85	17.9	0	2	45	0.0	1012.8	0	0.000	0.0
20110823 02:45	20.4	20.4	20.4	85	17.8	0	0	-100000	0.0	1012.9	0	0.000	0.0
20110823 02:50	20.3	20.3	20.3	86	17.9	0	0	-100000	0.0	1012.9	0	0.000	0.0
20110823 02:55	20.2	20.2	20.2	86	17.7	0	0	-100000	0.0	1012.9	0	0.000	0.0
20110823 03:00	20.0	20.0	20.0	86	17.6	0	0	-100000	0.0	1013.0	0	0.000	0.0
20110823 03:05	19.7	19.7	19.7	85	17.1	0	0	-100000	0.0	1013.1	0	0.025	0.0
20110823 03:10	19.4	19.4	19.4	86	17.0	0	0	-100000	0.0	1013.2	0	0.000	0.0
20110823 03:15	19.3	19.3	19.3	86	16.9	0	0	-100000	0.0	1013.1	0	0.000	0.0
20110823 03:20	19.2	19.2	19.2	87	17.0	0	0	-100000	0.0	1013.1	0	0.000	0.0
20110823 03:25	19.2	19.2	19.2	88	17.1	0	2	45	0.0	1013.1	0	0.000	0.0
20110823 03:30	19.2	19.2	19.2	88	17.1	0	0	-100000	0.0	1013.1	0	0.000	0.0
20110823 03:35	19.2	19.2	19.2	88	17.2	0	3	45	0.0	1013.0	0	0.000	0.0
20110823 03:40	19.2	19.2	19.2	88	17.2	0	2	45	0.0	1013.0	0	0.000	0.0
20110823 03:45	19.2	19.2	19.2	88	17.1	0	2	45	0.0	1013.0	0	0.000	0.0
20110823 03:50	19.1	19.1	19.1	88	17.1	0	3	45	0.0	1013.1	0	0.000	0.0
20110823 03:55	19.0	19.0	19.0	88	17.0	0	2	45	0.0	1013.2	0	0.000	0.0
20110823 04:00	19.0	19.0	19.0	88	17.0	0	3	45	0.0	1013.2	0	0.000	0.0
20110823 04:05	19.0	19.0	19.0	88	17.0	0	2	45	0.0	1013.1	0	0.000	0.0
20110823 04:10	19.1	19.1	19.1	88	17.1	0	2	45	0.0	1013.1	0	0.000	0.0
20110823 04:15	19.1	19.1	19.1	88	17.1	0	3	45	0.0	1013.1	0	0.000	0.0
20110823 04:20	19.1	19.1	19.1	88	17.1	0	2	45	0.0	1013.2	0	0.000	0.0
20110823 04:25	19.1	19.1	19.1	88	17.0	0	2	45	0.0	1013.2	0	0.000	0.0
20110823 04:30	19.0	19.0	19.0	88	17.0	0	0	-100000	0.0	1013.1	0	0.000	0.0
20110823 04:35	18.9	18.9	18.9	88	16.9	0	2	45	0.0	1013.1	0	0.000	0.0
20110823 04:40	18.9	18.9	18.9	88	16.9	0	0	-100000	0.0	1013.1	0	0.000	0.0
20110823 04:45	18.9	18.9	18.9	88	16.9	0	2	45	0.0	1013.2	0	0.000	0.0
20110823 04:50	18.8	18.8	18.8	88	16.8	0	0	-100000	0.0	1013.1	0	0.000	0.0
20110823 04:55	18.8	18.8	18.8	88	16.7	0	0	-100000	0.0	1013.1	0	0.000	0.0
20110823 05:00	18.8	18.8	18.8	89	16.9	0	0	-100000	0.0	1013.1	0	0.000	0.0
20110823 05:05	18.7	18.7	18.7	89	16.9	0	0	-100000	0.0	1013.1	-100000	0.000	0.0
20110823 05:10	18.7	18.7	18.7	89	16.8	0	0	-100000	0.0	1013.0	0	0.000	0.0
20110823 05:15	18.7	18.7	18.7	89	16.8	0	0	-100000	0.0	1013.0	0	0.000	0.0
20110823 05:20	18.7	18.7	18.7	89	16.8	0	0	-100000	0.0	1013.0	0	0.000	0.0
20110823 05:25	18.6	18.6	18.6	89	16.8	0	0	-100000	0.0	1013.0	0	0.000	0.0
20110823 05:30	18.6	18.6	18.6	89	16.7	0	2	45	0.0	1013.1	0	0.000	0.0
20110823 05:35	18.6	18.6	18.6	89	16.7	0	2	45	0.0	1013.1	0	0.000	0.0
20110823 05:40	18.6	18.6	18.6	89	16.7	0	2	45	0.0	1013.1	0	0.000	0.0
20110823 05:45	18.4	18.4	18.4	89	16.6	0	3	45	0.0	1013.0	0	0.000	0.0
20110823 05:50	18.4	18.4	18.4	89	16.5	0	2	45	0.0	1013.1	0	0.000	0.0
20110823 05:55	18.3	18.3	18.3	89	16.4	0	2	45	0.0	1013.2	0	0.000	0.0
20110823 06:00	18.2	18.2	18.2	90	16.6	0	2	45	0.0	1013.1	0	0.000	0.0
20110823 06:05	18.1	18.1	18.1	90	16.4	0	2	45	0.0	1013.1	0	0.000	0.0
20110823 06:10	18.1	18.1	18.1	89	16.2	2	5	45	0.0	1013.4	0	0.000	0.0
20110823 06:15	17.9	17.9	17.9	90	16.3	0	2	45	0.0	1013.4	0	0.000	0.0
20110823 06:20	17.9	17.9	17.9	90	16.2	0	2	45	0.0	1013.3	0	0.000	0.0
20110823 06:25	17.9	17.9	17.9	90	16.3	0	3	45	0.0	1013.3	5	0.000	0.0
20110823 06:30	17.9	17.9	17.9	90	16.2	2	5	45	0.0	1013.3	9	0.000	0.0
20110823 06:35	17.9	17.9	17.9	91	16.4	0	6	338	0.0	1013.4	11	0.000	0.0
20110823 06:40	17.9	17.9	17.9	91	16.4	0	5	225	0.0	1013.4	14	0.000	0.0
20110823 06:45	17.9	17.9	17.9	91	16.4	2	5	180	0.0	1013.4	18	0.000	0.0
20110823 06:50	17.9	17.9	17.9	91	16.4	0	5	180	0.0	1013.5	21	0.000	0.0
20110823 06:55	17.9	17.9	17.9	91	16.4	3	6	180	0.0	1013.5	24	0.000	0.0
20110823 07:00	17.9	17.9	17.9	91	16.4	5	8	180	0.0	1013.5	27	0.000	0.0
20110823 07:05	17.9	17.9	17.9	91	16.5	3	6	180	0.0	1013.8	30	0.000	0.0
20110823 07:10	18.0	18.0	18.0	91	16.5	2	5	180	0.0	1013.9	33	0.000	0.0
20110823 07:15	18.0	18.0	18.0	91	16.5	3	8	180	0.0	1013.9	34	0.000	0.0
20110823 07:20	18.1	18.1	18.1	90	16.4	3	6	180	0.0	1013.9	37	0.000	0.0
20110823 07:25	18.2	18.2	18.2	90	16.5	2	5	180	0.0	1013.9	40	0.000	0.0
20110823 07:30	18.3	18.3	18.3	90	16.6	2	6	180	0.2	1013.9	42	0.000	0.0
20110823 07:35	18.4	18.4	18.4	90	16.7	2	6	180	0.0	1013.9	46	0.000	0.0
20110823 07:40	18.6	18.6	18.6	89	16.7	2	5	180	0.0	1013.9	92	0.000	0.0
20110823 07:45	18.7	18.7	18.7	89	16.9	2	6	180	0.0	1013.9	130	0.000	0.0
20110823 07:50	18.9	18.9	18.9	88	16.9	0	2	180	0.0	1014.0	142	0.000	0.0
20110823 07:55	19.2	19.2	19.2	87	17.0	2	6	180	0.0	1013.9	156	0.000	0.4
20110823 08:00	19.4	19.4	19.4	86	17.0	2	6	180	0.0	1014.0	172	0.051	0.5
20110823 08:05	19.8	19.8	19.8	85	17.2	2	5	180	0.0	1014.1	186	0.000	0.6
20110823 08:10	20.1	20.1	20.1	84	17.3	2	6	180	0.0	1014.2	199	0.000	0.7
20110823 08:15	20.4	20.4	20.4	82	17.2	3	8	180	0.0	1014.1	216	0.000	0.7
20110823 08:20	20.7	20.7	20.7	82	17.5	6	10	225	0.0	1014.2	234	0.000	0.8
20110823 08:25	20.9	20.9	20.9	81	17.6	6	11	225	0.0	1014.2	252	0.000	0.9
20110823 08:30	21.2	21.2	21.2	81	17.8	6	10	225	0.0	1014.2	268	0.000	1.0
20110823 08:35	21.6	21.6	21.6	80	18.0	6	10	225	0.0	1014.1	283	0.000	1.1
20110823 08:40	21.8	21.8	21.8	79	18.0	6	10	225	0.0	1014.0	297	0.000	1.1
20110823 08:45	22.2	22.2	22.2	78	18.2	5	8	225	0.0	1014.0	311	0.000	1.2
20110823 08:50	22.6	22.6	22.6	77	18.3	2	8	225	0.0	1013.9	324	0.000	1.3
20110823 08:55	22.9	22.9	22.9	75	18.3	5	8	225	0.0	1014.0	336	0.000	1.4
20110823 09:00	23.3	23.3	23.3	74	18.4	5	8	225	0.0	1013.9	347	0.178	1.5
20110823 09:05	23.6	23.6	23.6	73	18.5	3	8	225	0.0	1014.2	-100000	0.000	1.6
20110823 09:10	23.9	23.9	24.8	71	18.3	5	8	225	0.0	1014.1	374	0.000	1.7
20110823 09:15	24.1	24.1	25.0	70	18.3	3	10	225	0.0	1014.1	330	0.000	1.7
20110823 09:20	24.3	24.3	25.2	69	18.2	5	8	225	0.0	1014.1	87	0.000	1.5
20110823 09:25	24.4	24.4	25.4	69	18.4	3	8	225	0.0	1014.0	79	0.000	1.6
20110823 09:30	24.7	24.7	25.6	69	18.6	3	8	158	0.0	1014.1	79	0.000	1.6
20110823 09:35	24.9	24.9	25.9	67	18.4	5	8	225	0.0	1014.0	79	0.000	1.7
20110823 09:40	25.2	25.2	26.2	67	18.6	5	11	202	0.0	1014.0	79	0.000	1.8
20110823 09:45	25.6	25.6	26.6	66	18.7	3	8	225	0.0	1014.0	79	0.000	1.9
20110823 09:50	25.8	25.8	26.9	65	18.7	3	8	225	0.0	1014.0	81	0.000	1.9
20110823 09:55	26.1	26.1	27.1	62	18.2	8	14	225	0.0	1013.9	81	0.000	2.0
20110823 10:00	26.3	26.3	27.3	60	17.9	6	11	225	0.0	1013.9	81	0.127	2.1
20110823 10:05	26.6	26.6	27.6	60	18.2	5	11	248	0.0	1013.9	81	0.000	2.1
20110823 10:10	26.9	26.9	27.9	59	18.2	6	13	248	0.0	1013.9	83	0.000	2.2
20110823 10:15	27.1	27.1	28.1	59	18.3	5	10	248	0.0	1013.8	83	0.000	2.3
20110823 10:20	27.3	27.3	28.4	59	18.5	5	11	248	0.0	1013.8	84	0.000	2.4
20110823 10:25	27.4	27.4	28.5	58	18.4	8	11	270	0.0	1013.8	86	0.000	2.4
20110823 10:30	27.6	27.6	28.8	59	18.9	5	11	270	0.0	1013.8	87	0.000	2.5
20110823 10:35	27.8	27.8	28.7	56	18.2	5	10	248	0.0	1013.8	89	0.000	2.6
20110823 10:40	27.9	27.9	28.8	54	17.8	5	10	248	0.0	1013.7	433	0.000	2.7
20110823 10:45	28.1	28.1	28.8	53	17.6	5	10	270	0.0	1013.6	607	0.000	4.0
20110823 10:50	28.2	28.2	29.0	53	17.7	5	11	248	0.0	1013.7	618	0.000	4.5
20110823 10:55	28.5	28.5	29.4	53	18.0	5	10	270	0.0	1013.6	629	0.000	4.7
20110823 11:00	28.7	28.7	29.8	54	18.5	3	6	270	0.0	1013.7	639	0.229	4.8
20110823 11:05	29.0	29.0	29.7	50	17.5	8	14	270	0.0	1013.8	650	0.000	5.0
20110823 11:10	29.3	29.3	29.8	48	17.1	6	13	270	0.0	1013.6	660	0.000	5.1
20110823 11:15	29.6	29.6	30.0	47	17.0	5	11	270	0.0	1013.7	669	0.000	5.3
20110823 11:20	29.7	29.7	30.2	47	17.2	5	14	270	0.0	1013.7	679	0.000	5.4
20110823 11:25	29.8	29.8	30.2	46	16.9	5	11	292	0.0	1013.7	687	0.000	5.6
20110823 11:30	29.8	29.8	30.4	47	17.3	3	6	292	0.0	1013.6	696	0.000	5.7
20110823 11:35	30.0	30.0	30.3	45	16.7	5	11	270	0.0	1013.6	704	0.000	5.8
20110823 11:40	30.2	30.2	30.6	45	16.9	5	11	292	0.0	1013.6	714	0.000	6.0
20110823 11:45	30.4	30.4	30.9	45	17.2	5	10	292	0.0	1013.4	721	0.000	6.1
20110823 11:50	30.6	30.6	30.9	44	16.9	5	10	248	0.0	1013.4	725	0.000	6.2
20110823 11:55	30.7	30.7	30.9	43	16.6	2	6	270	0.0	1013.4	732	0.000	6.3
20110823 12:00	30.8	30.8	31.6	46	17.9	5	11	292	0.0	1013.3	734	0.508	6.4
20110823 12:05	31.1	31.1	31.6	44	17.3	2	6	292	0.0	1013.4	740	0.000	6.5
20110823 12:10	31.3	31.3	31.9	44	17.5	0	3	292	0.0	1013.4	744	0.000	6.6
20110823 12:15	31.4	31.4	31.5	40	16.2	5	16	292	0.0	1013.3	754	0.000	6.6
20110823 12:20	31.8	31.8	32.0	40	16.5	6	11	225	0.0	1013.2	761	0.000	6.7
20110823 12:25	32.1	32.1	32.1	38	16.0	10	18	225	0.0	1013.2	765	0.000	6.8
20110823 12:30	32.2	32.2	32.2	38	16.1	5	11	270	0.0	1013.1	765	0.000	6.9
20110823 12:35	32.3	32.3	32.4	38	16.2	10	14	270	0.0	1013.0	771	0.000	7.0
20110823 12:40	32.4	32.4	32.2	36	15.4	6	13	270	0.0	1013.1	777	0.000	7.0
20110823 12:45	32.7	32.7	32.2	34	14.7	10	16	270	0.0	1013.0	781	0.000	7.1
20110823 12:50	32.8	32.8	32.1	32	13.9	8	16	248	0.0	1013.0	782	0.000	7.1
20110823 12:55	33.1	33.1	32.2	31	13.6	8	14	292	0.0	1012.9	782	0.000	7.2
20110823 13:00	33.2	33.2	32.4	31	13.7	6	16	270	0.0	1012.9	788	0.610	7.2
20110823 13:05	33.2	33.2	32.4	31	13.8	11	23	292	0.0	1012.8	786	0.000	7.3
20110823 13:10	33.2	33.2	32.2	30	13.2	13	21	270	0.0	1012.8	790	0.000	7.3
20110823 13:15	33.2	33.2	32.4	31	13.8	10	18	248	0.0	1012.8	788	0.000	7.3
20110823 13:20	33.3	33.3	32.9	33	14.8	8	14	248	0.0	1012.7	788	0.000	7.3
20110823 13:25	33.5	33.5	32.8	31	14.0	10	19	248	0.0	1012.7	785	0.000	7.2
20110823 13:30	33.6	33.6	32.9	31	14.1	10	16	270	0.0	1012.7	782	0.000	7.2
20110823 13:35	33.6	33.6	32.8	30	13.6	13	23	292	0.0	1012.6	780	0.000	7.2
20110823 13:40	33.8	33.8	32.8	29	13.2	10	19	292	0.0	1012.6	783	0.000	7.1
20110823 13:45	33.9	33.9	33.1	30	13.9	10	16	292	0.0	1012.6	778	0.000	7.1
20110823 13:50	33.9	33.9	33.3	31	14.4	10	18	270	0.0	1012.6	780	0.000	7.1
20110823 13:55	33.9	33.9	33.4	31	14.4	10	21	292	0.0	1012.6	775	0.000	7.0
20110823 14:00	33.9	33.9	33.0	29	13.4	10	16	270	0.0	1012.6	773	0.686	6.9
20110823 14:05	33.9	33.9	33.5	32	14.8	8	18	292	0.0	1012.6	772	0.000	6.9
20110823 14:10	33.8	33.8	33.1	30	13.8	13	21	292	0.0	1012.5	768	0.000	6.8
20110823 14:15	33.8	33.8	33.2	31	14.3	10	18	315	0.0	1012.5	764	0.000	6.7
20110823 14:20	33.9	33.9	33.1	30	13.9	10	18	292	0.0	1012.5	765	0.000	6.7
20110823 14:25	34.0	34.0	33.3	30	13.9	8	16	270	0.0	1012.5	758	0.000	6.6
20110823 14:30	34.0	34.0	33.1	29	13.4	10	19	315	0.0	1012.5	754	0.000	6.5
20110823 14:35	33.9	33.9	33.2	30	13.9	10	19	270	0.0	1012.4	745	0.000	6.4
20110823 14:40	34.1	34.1	33.7	32	15.0	8	21	292	0.0	1012.5	739	0.000	6.3
20110823 14:45	34.0	34.0	33.6	32	14.9	10	18	315	0.0	1012.4	730	0.000	6.1
20110823 14:50	33.9	33.9	33.6	32	14.9	10	21	315	0.0	1012.3	721	0.000	6.0
20110823 14:55	33.9	33.9	33.8	33	15.4	10	21	315	0.0	1012.2	718	0.000	5.9
20110823 15:00	33.9	33.9	33.7	33	15.3	10	18	292	0.0	1012.1	706	0.635	5.8
20110823 15:05	33.9	33.9	34.1	35	16.2	8	16	315	0.0	1012.2	700	0.000	5.7
20110823 15:10	33.8	33.8	33.7	34	15.7	10	16	292	0.0	1012.2	695	0.000	5.5
20110823 15:15	33.8	33.8	34.3	37	17.0	8	19	315	0.0	1012.2	689	0.000	5.4
20110823 15:20	33.8	33.8	33.9	35	16.2	10	16	315	0.0	1012.2	678	0.000	5.3
20110823 15:25	33.9	33.9	34.1	35	16.2	8	19	315	0.0	1012.2	668	0.000	5.1
20110823 15:30	33.7	33.7	34.0	36	16.5	10	18	315	0.0	1012.2	662	0.000	5.0
20110823 15:35	33.9	33.9	34.3	36	16.7	3	11	292	0.0	1012.1	654	0.000	4.9
20110823 15:40	34.1	34.1	34.6	36	16.8	6	14	315	0.0	1012.2	645	0.000	4.7
20110823 15:45	34.2	34.2	34.5	35	16.5	3	11	315	0.0	1012.1	637	0.000	4.6
20110823 15:50	34.2	34.2	33.9	32	15.1	8	16	315	0.0	1012.1	627	0.000	4.4
20110823 15:55	34.2	34.2	34.3	34	16.0	6	16	315	0.0	1012.0	617	0.000	4.3
20110823 16:00	34.2	34.2	33.7	31	14.6	6	11	315	0.0	1012.0	607	0.559	4.1
20110823 16:05	34.3	34.3	33.8	31	14.7	6	11	292	0.0	1012.0	597	0.000	4.0
20110823 16:10	34.4	34.4	34.0	31	14.8	5	14	315	0.0	1012.0	587	0.000	3.9
20110823 16:15	34.5	34.5	34.6	33	15.9	0	3	338	0.0	1012.0	577	0.000	3.7
20110823 16:20	34.6	34.6	34.7	33	16.0	2	8	315	0.0	1012.0	566	0.000	3.5
20110823 16:25	34.4	34.4	34.3	32	15.3	2	5	315	0.0	1011.9	552	0.000	3.4
20110823 16:30	34.4	34.4	34.9	35	16.7	0	3	315	0.0	1011.9	539	0.000	3.2
20110823 16:35	34.5	34.5	34.2	31	14.9	2	8	315	0.0	1011.9	525	0.000	3.1
20110823 16:40	34.5	34.5	34.2	31	14.9	2	8	315	0.0	1011.9	513	0.000	3.0
20110823 16:45	34.6	34.6	34.7	33	15.9	2	6	315	0.0	1011.8	501	0.000	2.8
20110823 16:50	34.4	34.4	34.7	34	16.3	0	3	315	0.0	1011.8	491	0.000	2.7
20110823 16:55	34.3	34.3	34.5	34	16.1	2	5	338	0.0	1011.7	474	0.000	2.5
20110823 17:00	34.3	34.3	34.9	36	17.0	0	6	292	0.0	1011.7	460	0.406	2.4
20110823 17:05	34.2	34.2	35.2	38	17.8	0	3	315	0.0	1011.8	445	0.000	2.2
20110823 17:10	34.0	34.0	34.7	37	17.2	0	6	315	0.0	1011.8	430	0.000	2.1
20110823 17:15	33.6	33.6	34.0	37	16.8	3	8	22	0.0	1011.8	418	0.000	2.0
20110823 17:20	33.4	33.4	33.8	37	16.7	2	6	22	0.0	1011.9	404	0.000	1.8
20110823 17:25	33.2	33.2	33.1	35	15.7	5	8	22	0.0	1011.9	391	0.000	1.7
20110823 17:30	33.2	33.2	33.6	38	16.9	2	6	22	0.0	1011.9	377	0.000	1.6
20110823 17:35	33.1	33.1	33.3	37	16.4	0	5	22	0.0	1011.9	363	0.000	1.5
20110823 17:40	33.1	33.1	33.5	38	16.9	2	5	22	0.0	1011.8	350	0.000	1.4
20110823 17:45	33.0	33.0	33.4	38	16.8	3	6	0	0.0	1011.8	336	0.000	1.3
20110823 17:50	32.9	32.9	33.1	37	16.3	2	8	0	0.0	1011.8	320	0.000	1.2
20110823 17:55	32.9	32.9	33.7	40	17.5	0	3	22	0.0	1011.8	306	0.000	1.1
20110823 18:00	32.9	32.9	32.8	36	15.8	5	8	22	0.0	1011.7	295	0.279	1.1
20110823 18:05	32.8	32.8	33.3	39	17.0	2	8	22	0.0	1011.8	279	0.000	1.0
20110823 18:10	32.7	32.7	32.9	38	16.5	3	8	22	0.0	1011.8	266	0.000	0.9
20110823 18:15	32.5	32.5	32.5	37	15.9	5	6	22	0.0	1011.8	251	0.000	0.8
20110823 18:20	32.3	32.3	32.2	37	15.8	3	6	22	0.0	1011.7	236	0.000	0.7
20110823 18:25	32.3	32.3	32.6	39	16.6	2	5	22	0.0	1011.7	218	0.000	0.7
20110823 18:30	32.3	32.3	32.5	39	16.5	2	5	22	0.0	1011.6	202	0.000	0.6
20110823 18:35	32.2	32.2	32.2	38	16.0	3	8	22	0.0	1011.7	188	0.000	0.6
20110823 18:40	32.1	32.1	32.9	43	17.9	0	5	22	0.0	1011.6	171	0.000	0.5
20110823 18:45	31.8	31.8	32.8	44	18.0	3	8	22	0.0	1011.7	153	0.000	0.3
20110823 18:50	31.6	31.6	32.3	44	17.8	2	6	22	0.0	1011.7	138	0.000	0.0
20110823 18:55	31.3	31.3	32.4	46	18.3	0	3	22	0.0	1011.6	73	0.000	0.0
20110823 19:00	31.1	31.1	31.8	45	17.7	2	3	45	0.0	1011.7	59	0.000	0.0
20110823 19:05	30.9	30.9	31.5	45	17.6	0	3	45	0.0	1011.6	55	0.152	0.0
20110823 19:10	30.8	30.8	31.5	46	17.8	0	3	45	0.0	1011.6	52	0.000	0.0
20110823 19:15	30.7	30.7	31.7	48	18.4	0	2	0	0.0	1011.5	47	0.000	0.0
20110823 19:20	30.5	30.5	31.6	49	18.6	0	2	0	0.0	1011.5	43	0.000	0.0
20110823 19:25	30.2	30.2	31.1	48	18.0	0	2	0	0.0	1011.4	39	0.000	0.0
20110823 19:30	30.1	30.1	30.8	48	17.8	0	2	22	0.0	1011.6	34	0.000	0.0
20110823 19:35	29.9	29.9	30.7	49	18.0	0	2	22	0.0	1011.7	30	0.000	0.0
20110823 19:40	29.7	29.7	30.6	50	18.2	0	2	22	0.0	1011.6	26	0.000	0.0
20110823 19:45	29.5	29.5	30.6	52	18.6	0	2	22	0.0	1011.6	22	0.000	0.0
20110823 19:50	29.2	29.2	30.2	52	18.3	0	2	22	0.0	1011.6	18	0.000	0.0
20110823 19:55	29.0	29.0	29.9	52	18.1	0	2	22	0.0	1011.8	14	0.000	0.0
20110823 20:00	28.7	28.7	29.7	54	18.4	0	2	22	0.0	1011.8	11	0.025	0.0
20110823 20:05	28.4	28.4	29.6	56	18.8	0	0	-100000	0.0	1011.5	8	0.000	0.0
20110823 20:10	28.2	28.2	29.4	57	18.8	0	0	-100000	0.0	1011.4	4	0.000	0.0
20110823 20:15	27.8	27.8	28.9	57	18.5	0	2	22	0.0	1011.5	0	0.000	0.0
20110823 20:20	27.6	27.6	28.6	58	18.5	0	0	-100000	0.0	1011.6	0	0.000	0.0
20110823 20:25	27.2	27.2	28.3	59	18.5	0	0	-100000	0.0	1011.7	0	0.000	0.0
20110823 20:30	27.0	27.0	28.1	60	18.6	0	0	-100000	0.0	1011.8	0	0.000	0.0
20110823 20:35	26.8	26.8	27.8	60	18.3	0	0	-100000	0.0	1011.9	0	0.000	0.0
20110823 20:40	26.5	26.5	27.5	60	18.1	0	0	-100000	0.0	1011.9	0	0.000	0.0
20110823 20:45	26.2	26.2	27.3	63	18.6	0	0	-100000	0.0	1012.1	0	0.000	0.0
20110823 20:50	25.9	25.9	27.1	66	19.1	0	0	-100000	0.0	1012.1	0	0.000	0.0
20110823 20:55	25.7	25.7	26.8	66	18.9	0	0	-100000	0.0	1012.2	0	0.000	0.0
20110823 21:00	25.5	25.5	26.6	67	18.9	0	0	-100000	0.0	1012.2	0	0.000	0.0
20110823 21:05	25.3	25.3	26.4	67	18.8	0	0	-100000	0.0	1012.1	0	0.000	0.0
20110823 21:10	25.1	25.1	26.1	68	18.7	0	0	-100000	0.0	1012.1	0	0.000	0.0
20110823 21:15	24.9	24.9	25.9	69	18.8	0	0	-100000	0.0	1012.1	0	0.000	0.0
20110823 21:20	24.8	24.8	25.7	70	18.9	0	0	-100000	0.0	1012.1	0	0.000	0.0
20110823 21:25	24.6	24.6	25.5	70	18.8	0	0	-100000	0.0	1012.2	0	0.000	0.0
20110823 21:30	24.4	24.4	25.3	71	18.8	0	0	-100000	0.0	1012.3	0	0.000	0.0
20110823 21:35	24.2	24.2	25.0	71	18.6	0	0	-100000	0.0	1012.3	0	0.000	0.0
20110823 21:40	24.1	24.1	24.8	73	18.9	0	0	-100000	0.0	1012.3	0	0.000	0.0
20110823 21:45	23.9	23.9	24.7	73	18.7	0	0	-100000	0.0	1012.3	0	0.000	0.0
20110823 21:50	23.8	23.8	23.8	74	18.9	0	0	-100000	0.0	1012.4	0	0.000	0.0
20110823 21:55	23.6	23.6	23.6	73	18.4	2	8	22	0.0	1012.4	0	0.000	0.0
20110823 22:00	23.4	23.4	23.4	74	18.5	0	0	-100000	0.0	1012.6	0	0.025	0.0
20110823 22:05	23.3	23.3	23.3	74	18.4	0	0	-100000	0.0	1012.2	0	0.000	0.0
20110823 22:10	23.1	23.1	23.1	74	18.2	0	0	-100000	0.0	1012.2	0	0.000	0.0
20110823 22:15	23.1	23.1	23.1	75	18.4	0	0	-100000	0.0	1012.2	0	0.000	0.0
20110823 22:20	22.9	22.9	22.9	75	18.3	0	0	-100000	0.0	1012.3	0	0.000	0.0
20110823 22:25	22.9	22.9	22.9	74	18.0	0	0	-100000	0.0	1012.4	0	0.000	0.0
20110823 22:30	22.9	22.9	22.9	75	18.2	0	2	22	0.0	1012.3	0	0.000	0.0
20110823 22:35	22.9	22.9	22.9	75	18.2	0	2	22	0.0	1012.3	0	0.000	0.0
20110823 22:40	22.9	22.9	22.9	74	18.1	0	2	22	0.0	1012.3	0	0.000	0.0
20110823 22:45	23.0	23.0	23.0	74	18.1	0	2	22	0.0	1012.2	0	0.000	0.0
20110823 22:50	23.1	23.1	23.1	73	17.9	0	2	22	0.0	1012.3	0	0.000	0.0
20110823 22:55	23.1	23.1	23.1	72	17.8	0	3	22	0.0	1012.4	0	0.000	0.0
20110823 23:00	23.2	23.2	23.2	71	17.6	0	2	22	0.0	1012.3	0	0.025	0.0
20110823 23:05	23.1	23.1	23.1	71	17.6	0	2	22	0.0	1012.1	0	0.000	0.0
20110823 23:10	23.1	23.1	23.1	71	17.6	0	2	22	0.0	1012.1	0	0.000	0.0
20110823 23:15	23.1	23.1	23.1	71	17.6	0	2	22	0.0	1012.2	0	0.000	0.0
20110823 23:20	23.1	23.1	23.1	71	17.6	0	2	22	0.0	1012.1	0	0.000	0.0
20110823 23:25	23.1	23.1	23.1	71	17.5	0	2	22	0.0	1012.1	0	0.000	0.0
20110823 23:30	23.0	23.0	23.0	71	17.4	2	5	45	0.0	1012.3	0	0.000	0.0
20110823 23:35	22.9	22.9	22.9	71	17.4	0	2	45	0.0	1012.3	0	0.000	0.0
20110823 23:40	22.8	22.8	22.8	71	17.3	0	2	45	0.0	1012.3	0	0.000	0.0
20110823 23:45	22.8	22.8	22.8	72	17.5	0	2	45	0.0	1012.1	0	0.000	0.0
20110823 23:50	22.7	22.7	22.7	72	17.4	0	2	45	0.0	1012.1	0	0.000	0.0
20110823 23:55	22.6	22.6	22.6	73	17.5	0	2	45	0.0	1012.1	0	0.000	0.0



Please note the license to use and transfer of this data:
http://creativecommons.org/licenses/by-nc-sa/3.0/deed.en

Bitte beachten sie die Lizenz zur Verwertung und Weitergabe der Daten:
http://creativecommons.org/licenses/by-nc-sa/3.0/deed.de

zurück zur Übersicht der Archivdaten (Monats und Tagesdaten)

Cookies helfen bei der Bereitstellung von Inhalten. Durch die Nutzung dieser Seiten erklärst du dich damit einverstanden, dass Cookies auf deinem Rechner gespeichert werden. Weitere Information